sensor_id;sensor_type;location;lat;lon;timestamp;pressure;altitude;pressure_sealevel;temperature;humidity
19086;BME280;9675;51.538;6.728;2022-11-15T00:00:50;100577.41;;;9.01;100.00
19086;BME280;9675;51.538;6.728;2022-11-15T00:03:20;100578.28;;;9.02;100.00
19086;BME280;9675;51.538;6.728;2022-11-15T00:05:48;100576.69;;;9.04;100.00
19086;BME280;9675;51.538;6.728;2022-11-15T00:08:15;100578.44;;;9.05;100.00
19086;BME280;9675;51.538;6.728;2022-11-15T00:10:54;100570.75;;;9.05;100.00
19086;BME280;9675;51.538;6.728;2022-11-15T00:13:21;100568.31;;;9.08;100.00
19086;BME280;9675;51.538;6.728;2022-11-15T00:15:49;100570.97;;;9.09;100.00
19086;BME280;9675;51.538;6.728;2022-11-15T00:18:17;100569.22;;;9.08;100.00
19086;BME280;9675;51.538;6.728;2022-11-15T00:20:44;100570.97;;;9.09;100.00
19086;BME280;9675;51.538;6.728;2022-11-15T00:23:11;100577.97;;;9.12;100.00
19086;BME280;9675;51.538;6.728;2022-11-15T00:25:39;100573.78;;;9.14;100.00
19086;BME280;9675;51.538;6.728;2022-11-15T00:28:06;100576.44;;;9.15;100.00
19086;BME280;9675;51.538;6.728;2022-11-15T00:30:33;100571.44;;;9.18;100.00
19086;BME280;9675;51.538;6.728;2022-11-15T00:33:04;100564.69;;;9.20;100.00
19086;BME280;9675;51.538;6.728;2022-11-15T00:35:32;100562.28;;;9.23;100.00
19086;BME280;9675;51.538;6.728;2022-11-15T00:38:00;100570.16;;;9.26;100.00
19086;BME280;9675;51.538;6.728;2022-11-15T00:40:27;100564.13;;;9.26;100.00
19086;BME280;9675;51.538;6.728;2022-11-15T00:42:54;100559.00;;;9.26;100.00
19086;BME280;9675;51.538;6.728;2022-11-15T00:45:22;100555.63;;;9.27;100.00
19086;BME280;9675;51.538;6.728;2022-11-15T00:47:49;100554.78;;;9.28;100.00
19086;BME280;9675;51.538;6.728;2022-11-15T00:50:18;100553.09;;;9.28;100.00
19086;BME280;9675;51.538;6.728;2022-11-15T00:52:45;100554.16;;;9.32;100.00
19086;BME280;9675;51.538;6.728;2022-11-15T00:55:14;100558.47;;;9.33;100.00
19086;BME280;9675;51.538;6.728;2022-11-15T00:57:42;100546.50;;;9.33;100.00
19086;BME280;9675;51.538;6.728;2022-11-15T01:00:11;100546.59;;;9.35;100.00
19086;BME280;9675;51.538;6.728;2022-11-15T01:02:38;100535.50;;;9.36;100.00
19086;BME280;9675;51.538;6.728;2022-11-15T01:05:06;100542.41;;;9.37;100.00
19086;BME280;9675;51.538;6.728;2022-11-15T01:07:35;100531.25;;;9.36;100.00
19086;BME280;9675;51.538;6.728;2022-11-15T01:10:03;100542.56;;;9.40;100.00
19086;BME280;9675;51.538;6.728;2022-11-15T01:12:30;100540.13;;;9.43;100.00
19086;BME280;9675;51.538;6.728;2022-11-15T01:14:57;100539.41;;;9.46;100.00
19086;BME280;9675;51.538;6.728;2022-11-15T01:17:24;100540.38;;;9.48;100.00
19086;BME280;9675;51.538;6.728;2022-11-15T01:19:51;100536.97;;;9.49;100.00
19086;BME280;9675;51.538;6.728;2022-11-15T01:22:19;100543.97;;;9.51;100.00
19086;BME280;9675;51.538;6.728;2022-11-15T01:24:49;100538.03;;;9.52;100.00
19086;BME280;9675;51.538;6.728;2022-11-15T01:27:16;100544.09;;;9.54;100.00
19086;BME280;9675;51.538;6.728;2022-11-15T01:29:43;100539.13;;;9.57;100.00
19086;BME280;9675;51.538;6.728;2022-11-15T01:32:10;100534.94;;;9.59;100.00
19086;BME280;9675;51.538;6.728;2022-11-15T01:34:37;100528.19;;;9.61;100.00
19086;BME280;9675;51.538;6.728;2022-11-15T01:37:04;100523.03;;;9.61;100.00
19086;BME280;9675;51.538;6.728;2022-11-15T01:39:31;100524.06;;;9.65;100.00
19086;BME280;9675;51.538;6.728;2022-11-15T01:42:00;100524.13;;;9.66;100.00
19086;BME280;9675;51.538;6.728;2022-11-15T01:44:40;100515.63;;;9.67;100.00
19086;BME280;9675;51.538;6.728;2022-11-15T01:47:12;100522.59;;;9.70;100.00
19086;BME280;9675;51.538;6.728;2022-11-15T01:49:50;100521.94;;;9.74;100.00
19086;BME280;9675;51.538;6.728;2022-11-15T01:52:22;100519.44;;;9.75;100.00
19086;BME280;9675;51.538;6.728;2022-11-15T01:54:58;100508.34;;;9.76;100.00
19086;BME280;9675;51.538;6.728;2022-11-15T01:57:28;100508.47;;;9.79;100.00
19086;BME280;9675;51.538;6.728;2022-11-15T01:59:57;100506.88;;;9.81;100.00
19086;BME280;9675;51.538;6.728;2022-11-15T02:02:27;100507.84;;;9.84;100.00
19086;BME280;9675;51.538;6.728;2022-11-15T02:04:54;100506.16;;;9.84;100.00
19086;BME280;9675;51.538;6.728;2022-11-15T02:07:22;100501.94;;;9.86;100.00
19086;BME280;9675;51.538;6.728;2022-11-15T02:09:50;100507.28;;;9.91;100.00
19086;BME280;9675;51.538;6.728;2022-11-15T02:12:20;100498.75;;;9.92;100.00
19086;BME280;9675;51.538;6.728;2022-11-15T02:14:53;100497.16;;;9.94;100.00
19086;BME280;9675;51.538;6.728;2022-11-15T02:17:48;100489.50;;;9.95;100.00
19086;BME280;9675;51.538;6.728;2022-11-15T02:20:42;100487.00;;;9.97;100.00
19086;BME280;9675;51.538;6.728;2022-11-15T02:23:53;100488.00;;;10.00;100.00
19086;BME280;9675;51.538;6.728;2022-11-15T02:29:46;100489.06;;;10.04;100.00
19086;BME280;9675;51.538;6.728;2022-11-15T02:32:32;100495.13;;;10.06;100.00
19086;BME280;9675;51.538;6.728;2022-11-15T02:35:12;100496.09;;;10.08;100.00
19086;BME280;9675;51.538;6.728;2022-11-15T02:37:50;100491.97;;;10.11;100.00
19086;BME280;9675;51.538;6.728;2022-11-15T02:40:31;100498.06;;;10.13;100.00
19086;BME280;9675;51.538;6.728;2022-11-15T02:43:08;100494.59;;;10.13;100.00
19086;BME280;9675;51.538;6.728;2022-11-15T02:46:01;100489.63;;;10.16;100.00
19086;BME280;9675;51.538;6.728;2022-11-15T02:48:32;100484.63;;;10.19;100.00
19086;BME280;9675;51.538;6.728;2022-11-15T02:51:01;100471.69;;;10.17;100.00
19086;BME280;9675;51.538;6.728;2022-11-15T02:53:29;100479.63;;;10.22;100.00
19086;BME280;9675;51.538;6.728;2022-11-15T02:55:57;100483.16;;;10.24;100.00
19086;BME280;9675;51.538;6.728;2022-11-15T02:59:08;100482.34;;;10.25;100.00
19086;BME280;9675;51.538;6.728;2022-11-15T03:01:57;100491.78;;;10.26;100.00
19086;BME280;9675;51.538;6.728;2022-11-15T03:04:37;100485.03;;;10.28;100.00
19086;BME280;9675;51.538;6.728;2022-11-15T03:07:16;100480.78;;;10.29;100.00
19086;BME280;9675;51.538;6.728;2022-11-15T03:09:52;100485.13;;;10.30;100.00
19086;BME280;9675;51.538;6.728;2022-11-15T03:12:28;100479.16;;;10.31;100.00
19086;BME280;9675;51.538;6.728;2022-11-15T03:15:01;100469.72;;;10.31;100.00
19086;BME280;9675;51.538;6.728;2022-11-15T03:17:36;100465.47;;;10.32;100.00
19086;BME280;9675;51.538;6.728;2022-11-15T03:20:09;100464.72;;;10.34;100.00
19086;BME280;9675;51.538;6.728;2022-11-15T03:22:42;100463.84;;;10.34;100.00
19086;BME280;9675;51.538;6.728;2022-11-15T03:25:21;100459.69;;;10.37;100.00
19086;BME280;9675;51.538;6.728;2022-11-15T03:27:55;100465.00;;;10.40;100.00
19086;BME280;9675;51.538;6.728;2022-11-15T03:30:24;100460.78;;;10.42;100.00
19086;BME280;9675;51.538;6.728;2022-11-15T03:32:56;100465.13;;;10.43;100.00
19086;BME280;9675;51.538;6.728;2022-11-15T03:35:30;100461.75;;;10.44;100.00
19086;BME280;9675;51.538;6.728;2022-11-15T03:38:05;100461.94;;;10.49;100.00
19086;BME280;9675;51.538;6.728;2022-11-15T03:40:38;100453.41;;;10.50;100.00
19086;BME280;9675;51.538;6.728;2022-11-15T03:43:16;100451.84;;;10.53;100.00
19086;BME280;9675;51.538;6.728;2022-11-15T03:45:56;100453.59;;;10.54;100.00
19086;BME280;9675;51.538;6.728;2022-11-15T03:48:30;100454.56;;;10.56;100.00
19086;BME280;9675;51.538;6.728;2022-11-15T03:51:02;100455.50;;;10.58;100.00
19086;BME280;9675;51.538;6.728;2022-11-15T03:53:30;100452.09;;;10.59;100.00
19086;BME280;9675;51.538;6.728;2022-11-15T03:55:57;100457.25;;;10.59;100.00
19086;BME280;9675;51.538;6.728;2022-11-15T03:58:24;100460.72;;;10.60;100.00
19086;BME280;9675;51.538;6.728;2022-11-15T04:00:52;100448.84;;;10.63;100.00
19086;BME280;9675;51.538;6.728;2022-11-15T04:03:19;100449.03;;;10.68;100.00
19086;BME280;9675;51.538;6.728;2022-11-15T04:05:46;100453.38;;;10.69;100.00
19086;BME280;9675;51.538;6.728;2022-11-15T04:08:14;100448.22;;;10.69;100.00
19086;BME280;9675;51.538;6.728;2022-11-15T04:10:41;100439.78;;;10.72;100.00
19086;BME280;9675;51.538;6.728;2022-11-15T04:13:08;100443.34;;;10.75;100.00
19086;BME280;9675;51.538;6.728;2022-11-15T04:15:35;100447.72;;;10.78;100.00
19086;BME280;9675;51.538;6.728;2022-11-15T04:18:02;100444.34;;;10.79;100.00
19086;BME280;9675;51.538;6.728;2022-11-15T04:20:31;100449.63;;;10.82;100.00
19086;BME280;9675;51.538;6.728;2022-11-15T04:23:22;100440.25;;;10.84;100.00
19086;BME280;9675;51.538;6.728;2022-11-15T04:26:10;100447.09;;;10.83;100.00
19086;BME280;9675;51.538;6.728;2022-11-15T04:28:38;100448.13;;;10.87;100.00
19086;BME280;9675;51.538;6.728;2022-11-15T04:31:26;100443.91;;;10.89;100.00
19086;BME280;9675;51.538;6.728;2022-11-15T04:33:54;100449.94;;;10.89;100.00
19086;BME280;9675;51.538;6.728;2022-11-15T04:36:22;100451.63;;;10.89;100.00
19086;BME280;9675;51.538;6.728;2022-11-15T04:39:08;100449.13;;;10.90;100.00
19086;BME280;9675;51.538;6.728;2022-11-15T04:41:35;100456.06;;;10.91;100.00
19086;BME280;9675;51.538;6.728;2022-11-15T04:44:02;100456.06;;;10.91;100.00
19086;BME280;9675;51.538;6.728;2022-11-15T04:46:29;100449.13;;;10.90;100.00
19086;BME280;9675;51.538;6.728;2022-11-15T04:48:56;100450.00;;;10.91;100.00
19086;BME280;9675;51.538;6.728;2022-11-15T04:51:23;100450.09;;;10.92;100.00
19086;BME280;9675;51.538;6.728;2022-11-15T04:53:50;100442.41;;;10.94;100.00
19086;BME280;9675;51.538;6.728;2022-11-15T04:56:19;100442.41;;;10.94;100.00
19086;BME280;9675;51.538;6.728;2022-11-15T04:58:48;100450.19;;;10.95;100.00
19086;BME280;9675;51.538;6.728;2022-11-15T05:01:16;100454.53;;;10.96;100.00
19086;BME280;9675;51.538;6.728;2022-11-15T05:03:44;100452.97;;;11.00;100.00
19086;BME280;9675;51.538;6.728;2022-11-15T05:06:29;100457.41;;;11.04;100.00
19086;BME280;9675;51.538;6.728;2022-11-15T05:08:57;100460.06;;;11.05;100.00
19086;BME280;9675;51.538;6.728;2022-11-15T05:11:26;100449.69;;;11.04;100.00
19086;BME280;9675;51.538;6.728;2022-11-15T05:13:53;100453.09;;;11.03;100.00
19086;BME280;9675;51.538;6.728;2022-11-15T05:16:21;100446.94;;;10.99;100.00
19086;BME280;9675;51.538;6.728;2022-11-15T05:18:51;100453.03;;;11.01;100.00
19086;BME280;9675;51.538;6.728;2022-11-15T05:21:20;100457.31;;;11.01;100.00
19086;BME280;9675;51.538;6.728;2022-11-15T05:23:47;100450.38;;;11.00;100.00
19086;BME280;9675;51.538;6.728;2022-11-15T05:26:17;100446.13;;;11.00;100.00
19086;BME280;9675;51.538;6.728;2022-11-15T05:28:45;100442.66;;;11.00;100.00
19086;BME280;9675;51.538;6.728;2022-11-15T05:31:15;100433.25;;;11.00;100.00
19086;BME280;9675;51.538;6.728;2022-11-15T05:33:44;100437.56;;;11.01;100.00
19086;BME280;9675;51.538;6.728;2022-11-15T05:36:17;100437.56;;;11.01;100.00
19086;BME280;9675;51.538;6.728;2022-11-15T05:38:46;100433.31;;;11.02;100.00
19086;BME280;9675;51.538;6.728;2022-11-15T05:41:19;100435.06;;;11.03;100.00
19086;BME280;9675;51.538;6.728;2022-11-15T05:43:49;100429.06;;;11.04;100.00
19086;BME280;9675;51.538;6.728;2022-11-15T05:46:18;100424.78;;;11.03;100.00
19086;BME280;9675;51.538;6.728;2022-11-15T05:48:49;100425.00;;;11.09;100.00
19086;BME280;9675;51.538;6.728;2022-11-15T05:51:20;100424.25;;;11.12;100.00
19086;BME280;9675;51.538;6.728;2022-11-15T05:53:48;100417.41;;;11.12;100.00
19086;BME280;9675;51.538;6.728;2022-11-15T05:56:16;100429.47;;;11.13;100.00
19086;BME280;9675;51.538;6.728;2022-11-15T05:58:44;100431.28;;;11.16;100.00
19086;BME280;9675;51.538;6.728;2022-11-15T06:01:12;100426.06;;;11.14;100.00
19086;BME280;9675;51.538;6.728;2022-11-15T06:03:39;100421.75;;;11.13;100.00
19086;BME280;9675;51.538;6.728;2022-11-15T06:06:06;100428.78;;;11.17;100.00
19086;BME280;9675;51.538;6.728;2022-11-15T06:08:33;100425.38;;;11.18;100.00
19086;BME280;9675;51.538;6.728;2022-11-15T06:11:04;100439.16;;;11.19;100.00
19086;BME280;9675;51.538;6.728;2022-11-15T06:13:32;100439.16;;;11.19;100.00
19086;BME280;9675;51.538;6.728;2022-11-15T06:15:59;100428.88;;;11.20;100.00
19086;BME280;9675;51.538;6.728;2022-11-15T06:18:27;100428.88;;;11.20;100.00
19086;BME280;9675;51.538;6.728;2022-11-15T06:20:59;100430.66;;;11.21;100.00
19086;BME280;9675;51.538;6.728;2022-11-15T06:23:26;100430.72;;;11.23;100.00
19086;BME280;9675;51.538;6.728;2022-11-15T06:25:57;100440.25;;;11.25;100.00
19086;BME280;9675;51.538;6.728;2022-11-15T06:28:24;100437.81;;;11.28;100.00
19086;BME280;9675;51.538;6.728;2022-11-15T06:30:51;100434.44;;;11.29;100.00
19086;BME280;9675;51.538;6.728;2022-11-15T06:33:18;100439.59;;;11.29;100.00
19086;BME280;9675;51.538;6.728;2022-11-15T06:35:47;100432.66;;;11.28;100.00
19086;BME280;9675;51.538;6.728;2022-11-15T06:38:14;100444.75;;;11.29;100.00
19086;BME280;9675;51.538;6.728;2022-11-15T06:40:41;100445.66;;;11.31;100.00
19086;BME280;9675;51.538;6.728;2022-11-15T06:43:08;100447.44;;;11.32;100.00
19086;BME280;9675;51.538;6.728;2022-11-15T06:45:35;100439.69;;;11.32;100.00
19086;BME280;9675;51.538;6.728;2022-11-15T06:48:02;100448.38;;;11.34;100.00
19086;BME280;9675;51.538;6.728;2022-11-15T06:50:29;100444.97;;;11.35;100.00
19086;BME280;9675;51.538;6.728;2022-11-15T06:53:01;100445.03;;;11.37;100.00
19086;BME280;9675;51.538;6.728;2022-11-15T06:55:29;100445.09;;;11.38;100.00
19086;BME280;9675;51.538;6.728;2022-11-15T06:57:56;100450.25;;;11.38;100.00
19086;BME280;9675;51.538;6.728;2022-11-15T07:00:23;100451.06;;;11.37;100.00
19086;BME280;9675;51.538;6.728;2022-11-15T07:02:50;100452.03;;;11.39;100.00
19086;BME280;9675;51.538;6.728;2022-11-15T07:05:17;100464.06;;;11.40;100.00
19086;BME280;9675;51.538;6.728;2022-11-15T07:07:52;100462.44;;;11.42;100.00
19086;BME280;9675;51.538;6.728;2022-11-15T07:10:23;100467.59;;;11.42;100.00
19086;BME280;9675;51.538;6.728;2022-11-15T07:12:51;100462.44;;;11.42;100.00
19086;BME280;9675;51.538;6.728;2022-11-15T07:15:22;100469.38;;;11.43;100.00
19086;BME280;9675;51.538;6.728;2022-11-15T07:17:50;100478.88;;;11.44;100.00
19086;BME280;9675;51.538;6.728;2022-11-15T07:20:18;100476.28;;;11.44;100.00
19086;BME280;9675;51.538;6.728;2022-11-15T07:22:45;100478.03;;;11.45;100.00
19086;BME280;9675;51.538;6.728;2022-11-15T07:25:12;100486.59;;;11.44;100.00
19086;BME280;9675;51.538;6.728;2022-11-15T07:27:40;100489.34;;;11.49;100.00
19086;BME280;9675;51.538;6.728;2022-11-15T07:30:09;100491.13;;;11.50;100.00
19086;BME280;9675;51.538;6.728;2022-11-15T07:32:36;100493.69;;;11.50;100.00
19086;BME280;9675;51.538;6.728;2022-11-15T07:35:04;100482.53;;;11.51;100.00
19086;BME280;9675;51.538;6.728;2022-11-15T07:37:31;100482.63;;;11.52;100.00
19086;BME280;9675;51.538;6.728;2022-11-15T07:39:58;100490.47;;;11.56;100.00
19086;BME280;9675;51.538;6.728;2022-11-15T07:42:25;100491.34;;;11.56;100.00
19086;BME280;9675;51.538;6.728;2022-11-15T07:45:11;100504.19;;;11.55;100.00
19086;BME280;9675;51.538;6.728;2022-11-15T07:47:38;100505.94;;;11.56;100.00
19086;BME280;9675;51.538;6.728;2022-11-15T07:50:05;100496.50;;;11.56;100.00
19086;BME280;9675;51.538;6.728;2022-11-15T07:52:33;100506.78;;;11.55;100.00
19086;BME280;9675;51.538;6.728;2022-11-15T07:55:00;100506.69;;;11.53;100.00
19086;BME280;9675;51.538;6.728;2022-11-15T07:57:27;100507.50;;;11.52;100.00
19086;BME280;9675;51.538;6.728;2022-11-15T07:59:54;100516.13;;;11.52;100.00
19086;BME280;9675;51.538;6.728;2022-11-15T08:02:22;100526.38;;;11.51;100.00
19086;BME280;9675;51.538;6.728;2022-11-15T08:04:49;100531.59;;;11.52;100.00
19086;BME280;9675;51.538;6.728;2022-11-15T08:07:16;100525.44;;;11.49;100.00
19086;BME280;9675;51.538;6.728;2022-11-15T08:09:43;100534.00;;;11.48;100.00
19086;BME280;9675;51.538;6.728;2022-11-15T08:12:10;100541.66;;;11.46;100.00
19086;BME280;9675;51.538;6.728;2022-11-15T08:14:37;100537.31;;;11.45;100.00
19086;BME280;9675;51.538;6.728;2022-11-15T08:17:04;100545.94;;;11.46;100.00
19086;BME280;9675;51.538;6.728;2022-11-15T08:19:33;100546.56;;;11.40;100.00
19086;BME280;9675;51.538;6.728;2022-11-15T08:22:00;100547.41;;;11.39;100.00
19086;BME280;9675;51.538;6.728;2022-11-15T08:24:27;100549.97;;;11.39;100.00
19086;BME280;9675;51.538;6.728;2022-11-15T08:26:54;100552.41;;;11.36;100.00
19086;BME280;9675;51.538;6.728;2022-11-15T08:29:21;100558.25;;;11.32;100.00
19086;BME280;9675;51.538;6.728;2022-11-15T08:31:48;100557.38;;;11.32;100.00
19086;BME280;9675;51.538;6.728;2022-11-15T08:34:15;100535.81;;;11.30;100.00
19086;BME280;9675;51.538;6.728;2022-11-15T08:36:43;100540.03;;;11.28;100.00
19086;BME280;9675;51.538;6.728;2022-11-15T08:39:11;100551.22;;;11.28;100.00
19086;BME280;9675;51.538;6.728;2022-11-15T08:41:39;100547.63;;;11.25;100.00
19086;BME280;9675;51.538;6.728;2022-11-15T08:44:06;100544.22;;;11.26;100.00
19086;BME280;9675;51.538;6.728;2022-11-15T08:46:33;100540.78;;;11.25;100.00
19086;BME280;9675;51.538;6.728;2022-11-15T08:49:00;100532.13;;;11.23;100.00
19086;BME280;9675;51.538;6.728;2022-11-15T08:51:27;100534.69;;;11.23;100.00
19086;BME280;9675;51.538;6.728;2022-11-15T08:53:55;100526.97;;;11.23;100.00
19086;BME280;9675;51.538;6.728;2022-11-15T08:56:22;100528.66;;;11.23;100.00
19086;BME280;9675;51.538;6.728;2022-11-15T08:58:49;100520.03;;;11.22;100.00
19086;BME280;9675;51.538;6.728;2022-11-15T09:01:19;100514.88;;;11.22;100.00
19086;BME280;9675;51.538;6.728;2022-11-15T09:03:46;100507.97;;;11.21;100.00
19086;BME280;9675;51.538;6.728;2022-11-15T09:06:14;100513.13;;;11.21;100.00
19086;BME280;9675;51.538;6.728;2022-11-15T09:08:41;100514.88;;;11.22;100.00
19086;BME280;9675;51.538;6.728;2022-11-15T09:11:10;100514.00;;;11.22;100.00
19086;BME280;9675;51.538;6.728;2022-11-15T09:13:38;100520.94;;;11.23;100.00
19086;BME280;9675;51.538;6.728;2022-11-15T09:16:06;100516.66;;;11.23;100.00
19086;BME280;9675;51.538;6.728;2022-11-15T09:18:33;100511.53;;;11.25;100.00
19086;BME280;9675;51.538;6.728;2022-11-15T09:21:01;100512.41;;;11.25;100.00
19086;BME280;9675;51.538;6.728;2022-11-15T09:23:29;100514.25;;;11.28;100.00
19086;BME280;9675;51.538;6.728;2022-11-15T09:26:00;100507.41;;;11.28;100.00
19086;BME280;9675;51.538;6.728;2022-11-15T09:28:30;100513.50;;;11.30;100.00
19086;BME280;9675;51.538;6.728;2022-11-15T09:30:58;100504.13;;;11.32;100.00
19086;BME280;9675;51.538;6.728;2022-11-15T09:33:26;100508.47;;;11.33;100.00
19086;BME280;9675;51.538;6.728;2022-11-15T09:35:53;100512.88;;;11.36;100.00
19086;BME280;9675;51.538;6.728;2022-11-15T09:38:20;100506.81;;;11.35;100.00
19086;BME280;9675;51.538;6.728;2022-11-15T09:40:58;100505.19;;;11.37;100.00
19086;BME280;9675;51.538;6.728;2022-11-15T09:43:49;100504.31;;;11.37;100.00
19086;BME280;9675;51.538;6.728;2022-11-15T09:46:29;100494.88;;;11.37;100.00
19086;BME280;9675;51.538;6.728;2022-11-15T09:49:02;100486.34;;;11.38;100.00
19086;BME280;9675;51.538;6.728;2022-11-15T09:51:32;100482.97;;;11.39;100.00
19086;BME280;9675;51.538;6.728;2022-11-15T09:54:16;100467.59;;;11.42;100.00
19086;BME280;9675;51.538;6.728;2022-11-15T09:56:47;100462.56;;;11.45;100.00
19086;BME280;9675;51.538;6.728;2022-11-15T09:59:34;100458.41;;;11.49;100.00
19086;BME280;9675;51.538;6.728;2022-11-15T10:02:27;100458.59;;;11.54;100.00
19086;BME280;9675;51.538;6.728;2022-11-15T10:05:00;100444.88;;;11.55;100.00
19086;BME280;9675;51.538;6.728;2022-11-15T10:07:37;100449.25;;;11.57;100.00
19086;BME280;9675;51.538;6.728;2022-11-15T10:10:25;100451.91;;;11.59;100.00
19086;BME280;9675;51.538;6.728;2022-11-15T10:12:54;100436.50;;;11.60;100.00
19086;BME280;9675;51.538;6.728;2022-11-15T10:15:23;100434.91;;;11.64;100.00
19086;BME280;9675;51.538;6.728;2022-11-15T10:18:14;100423.91;;;11.68;100.00
19086;BME280;9675;51.538;6.728;2022-11-15T10:20:49;100430.00;;;11.70;100.00
19086;BME280;9675;51.538;6.728;2022-11-15T10:23:20;100426.75;;;11.74;100.00
19086;BME280;9675;51.538;6.728;2022-11-15T10:25:51;100424.25;;;11.77;100.00
19086;BME280;9675;51.538;6.728;2022-11-15T10:28:25;100421.00;;;11.81;100.00
19086;BME280;9675;51.538;6.728;2022-11-15T10:30:57;100423.63;;;11.82;100.00
19086;BME280;9675;51.538;6.728;2022-11-15T10:33:29;100417.75;;;11.86;100.00
19086;BME280;9675;51.538;6.728;2022-11-15T10:36:22;100405.88;;;11.90;100.00
19086;BME280;9675;51.538;6.728;2022-11-15T10:38:58;100403.38;;;11.93;100.00
19086;BME280;9675;51.538;6.728;2022-11-15T10:41:36;100392.47;;;12.00;100.00
19086;BME280;9675;51.538;6.728;2022-11-15T10:44:24;100385.84;;;12.07;100.00
19086;BME280;9675;51.538;6.728;2022-11-15T10:47:25;100389.50;;;12.13;100.00
19086;BME280;9675;51.538;6.728;2022-11-15T10:50:00;100393.25;;;12.21;100.00
19086;BME280;9675;51.538;6.728;2022-11-15T10:52:30;100375.50;;;12.30;100.00
19086;BME280;9675;51.538;6.728;2022-11-15T10:55:03;100372.63;;;12.47;100.00
19086;BME280;9675;51.538;6.728;2022-11-15T10:57:36;100368.44;;;12.50;100.00
19086;BME280;9675;51.538;6.728;2022-11-15T11:00:07;100372.94;;;12.56;100.00
19086;BME280;9675;51.538;6.728;2022-11-15T11:02:38;100361.91;;;12.61;100.00
19086;BME280;9675;51.538;6.728;2022-11-15T11:05:30;100357.78;;;12.66;100.00
19086;BME280;9675;51.538;6.728;2022-11-15T11:08:02;100363.91;;;12.70;100.00
19086;BME280;9675;51.538;6.728;2022-11-15T11:10:30;100358.97;;;12.76;100.00
19086;BME280;9675;51.538;6.728;2022-11-15T11:13:13;100363.47;;;12.82;100.00
19086;BME280;9675;51.538;6.728;2022-11-15T11:15:46;100351.56;;;12.87;100.00
19086;BME280;9675;51.538;6.728;2022-11-15T11:18:24;100341.34;;;12.90;100.00
19086;BME280;9675;51.538;6.728;2022-11-15T11:20:58;100353.72;;;13.00;100.00
19086;BME280;9675;51.538;6.728;2022-11-15T11:23:47;100339.19;;;13.03;100.00
19086;BME280;9675;51.538;6.728;2022-11-15T11:26:42;100352.47;;;13.14;100.00
19086;BME280;9675;51.538;6.728;2022-11-15T11:29:32;100344.03;;;13.19;100.00
19086;BME280;9675;51.538;6.728;2022-11-15T11:32:27;100343.38;;;13.27;100.00
19086;BME280;9675;51.538;6.728;2022-11-15T11:35:12;100347.88;;;13.32;100.00
19086;BME280;9675;51.538;6.728;2022-11-15T11:37:49;100338.59;;;13.39;100.00
19086;BME280;9675;51.538;6.728;2022-11-15T11:40:29;100338.78;;;13.45;100.00
19086;BME280;9675;51.538;6.728;2022-11-15T11:43:08;100345.03;;;13.53;100.00
19086;BME280;9675;51.538;6.728;2022-11-15T11:46:06;100342.63;;;13.59;100.00
19086;BME280;9675;51.538;6.728;2022-11-15T11:48:42;100346.22;;;13.64;100.00
19086;BME280;9675;51.538;6.728;2022-11-15T11:51:18;100337.78;;;13.70;100.00
19086;BME280;9675;51.538;6.728;2022-11-15T11:53:55;100342.19;;;13.74;100.00
19086;BME280;9675;51.538;6.728;2022-11-15T11:56:29;100337.25;;;13.81;100.00
19086;BME280;9675;51.538;6.728;2022-11-15T11:59:06;100340.91;;;13.88;100.00
19086;BME280;9675;51.538;6.728;2022-11-15T12:01:42;100336.69;;;13.91;100.00
19086;BME280;9675;51.538;6.728;2022-11-15T12:04:16;100330.75;;;13.95;100.00
19086;BME280;9675;51.538;6.728;2022-11-15T12:06:53;100332.63;;;14.01;100.00
19086;BME280;9675;51.538;6.728;2022-11-15T12:09:32;100326.66;;;14.03;100.00
19086;BME280;9675;51.538;6.728;2022-11-15T12:12:08;100313.84;;;14.08;100.00
19086;BME280;9675;51.538;6.728;2022-11-15T12:14:44;100317.44;;;14.15;100.00
19086;BME280;9675;51.538;6.728;2022-11-15T12:17:13;100315.91;;;14.21;100.00
19086;BME280;9675;51.538;6.728;2022-11-15T12:19:42;100311.72;;;14.26;100.00
19086;BME280;9675;51.538;6.728;2022-11-15T12:22:18;100292.88;;;14.32;100.00
19086;BME280;9675;51.538;6.728;2022-11-15T12:25:01;100301.69;;;14.37;100.00
19086;BME280;9675;51.538;6.728;2022-11-15T12:27:36;100286.22;;;14.40;97.57
19086;BME280;9675;51.538;6.728;2022-11-15T12:30:12;100283.78;;;14.46;98.19
19086;BME280;9675;51.538;6.728;2022-11-15T12:32:52;100265.78;;;14.51;96.55
19086;BME280;9675;51.538;6.728;2022-11-15T12:35:34;100272.78;;;14.55;96.19
19086;BME280;9675;51.538;6.728;2022-11-15T12:38:04;100263.34;;;14.58;96.58
19086;BME280;9675;51.538;6.728;2022-11-15T12:40:38;100255.63;;;14.61;95.52
19086;BME280;9675;51.538;6.728;2022-11-15T12:43:38;100258.38;;;14.67;91.83
19086;BME280;9675;51.538;6.728;2022-11-15T12:46:13;100252.38;;;14.68;86.39
19086;BME280;9675;51.538;6.728;2022-11-15T12:48:55;100248.13;;;14.72;84.78
19086;BME280;9675;51.538;6.728;2022-11-15T12:52:04;100230.00;;;14.73;82.69
19086;BME280;9675;51.538;6.728;2022-11-15T12:55:00;100222.34;;;14.78;80.78
19086;BME280;9675;51.538;6.728;2022-11-15T12:57:40;100231.09;;;14.83;82.05
19086;BME280;9675;51.538;6.728;2022-11-15T13:00:44;100210.34;;;14.83;80.21
19086;BME280;9675;51.538;6.728;2022-11-15T13:03:25;100211.25;;;14.83;76.40
19086;BME280;9675;51.538;6.728;2022-11-15T13:08:51;100201.78;;;14.85;75.61
19086;BME280;9675;51.538;6.728;2022-11-15T13:11:50;100203.59;;;14.89;72.86
19086;BME280;9675;51.538;6.728;2022-11-15T13:14:49;100192.41;;;14.91;73.16
19086;BME280;9675;51.538;6.728;2022-11-15T13:17:34;100190.69;;;14.93;72.69
19086;BME280;9675;51.538;6.728;2022-11-15T13:20:22;100191.59;;;14.95;72.24
19086;BME280;9675;51.538;6.728;2022-11-15T13:22:58;100183.88;;;14.98;72.78
19086;BME280;9675;51.538;6.728;2022-11-15T13:26:06;100187.41;;;15.00;72.56
19086;BME280;9675;51.538;6.728;2022-11-15T13:28:43;100185.72;;;15.02;70.88